createdAt,value
2023-05-21T00:00:56.883Z,4.60
2023-05-21T00:01:57.706Z,4.50
2023-05-21T00:02:58.616Z,5.10
2023-05-21T00:03:59.853Z,4.70
2023-05-21T00:05:00.486Z,4.40
2023-05-21T00:06:01.363Z,4.50
2023-05-21T00:07:02.203Z,4.90
2023-05-21T00:08:03.069Z,4.80
2023-05-21T00:09:03.987Z,4.70
2023-05-21T00:10:04.859Z,4.30
2023-05-21T00:11:05.742Z,4.80
2023-05-21T00:12:06.651Z,4.70
2023-05-21T00:13:07.514Z,4.60
2023-05-21T00:14:08.397Z,5.30
2023-05-21T00:15:09.285Z,4.80
2023-05-21T00:16:10.211Z,5.20
2023-05-21T00:17:11.052Z,4.80
2023-05-21T00:18:12.033Z,4.90
2023-05-21T00:19:12.958Z,4.80
2023-05-21T00:20:13.868Z,5.10
2023-05-21T00:21:14.775Z,4.90
2023-05-21T00:22:15.644Z,4.90
2023-05-21T00:23:16.515Z,5.00
2023-05-21T00:24:17.406Z,5.00
2023-05-21T00:25:18.279Z,4.80
2023-05-21T00:26:19.156Z,4.80
2023-05-21T00:27:20.061Z,5.10
2023-05-21T00:28:20.919Z,4.70
2023-05-21T00:29:21.815Z,4.90
2023-05-21T00:30:22.657Z,5.30
2023-05-21T00:31:23.616Z,5.10
2023-05-21T00:32:24.522Z,5.20
2023-05-21T00:33:25.393Z,5.20
2023-05-21T00:34:26.286Z,4.60
2023-05-21T00:35:27.151Z,4.90
2023-05-21T00:36:28.049Z,5.20
2023-05-21T00:37:28.892Z,4.70
2023-05-21T00:38:29.795Z,5.00
2023-05-21T00:39:30.667Z,5.20
2023-05-21T00:40:31.544Z,5.00
2023-05-21T00:41:32.410Z,5.00
2023-05-21T00:42:33.294Z,4.70
2023-05-21T00:43:34.183Z,5.10
2023-05-21T00:44:35.064Z,5.30
2023-05-21T00:45:36.121Z,5.40
2023-05-21T00:46:36.675Z,5.70
2023-05-21T00:47:37.569Z,5.30
2023-05-21T00:48:38.502Z,4.90
2023-05-21T00:49:39.372Z,5.40
2023-05-21T00:50:40.250Z,5.00
2023-05-21T00:51:41.146Z,5.10
2023-05-21T00:52:42.379Z,5.30
2023-05-21T00:53:42.845Z,5.20
2023-05-21T00:54:43.702Z,5.10
2023-05-21T00:55:44.546Z,5.30
2023-05-21T00:56:45.429Z,5.50
2023-05-21T00:57:46.311Z,5.40
2023-05-21T00:58:47.293Z,5.00
2023-05-21T00:59:48.164Z,4.90
2023-05-21T01:00:49.070Z,5.20
2023-05-21T01:01:50.078Z,5.20
2023-05-21T01:02:50.566Z,5.50
2023-05-21T01:03:50.990Z,5.00
2023-05-21T01:04:51.864Z,5.30
2023-05-21T01:05:52.732Z,5.40
2023-05-21T01:06:53.675Z,5.70
2023-05-21T01:07:54.517Z,5.60
2023-05-21T01:08:55.401Z,5.60
2023-05-21T01:09:56.266Z,5.30
2023-05-21T01:10:57.150Z,5.30
2023-05-21T01:11:58.009Z,5.60
2023-05-21T01:12:58.904Z,5.40
2023-05-21T01:13:59.775Z,5.40
2023-05-21T01:15:00.641Z,5.80
2023-05-21T01:16:01.523Z,5.40
2023-05-21T01:17:02.432Z,5.50
2023-05-21T01:18:03.332Z,5.40
2023-05-21T01:19:04.307Z,5.70
2023-05-21T01:20:06.777Z,5.40
2023-05-21T01:21:05.830Z,5.50
2023-05-21T01:22:06.710Z,5.50
2023-05-21T01:23:07.562Z,5.90
2023-05-21T01:24:08.475Z,5.70
2023-05-21T01:25:09.356Z,5.60
2023-05-21T01:26:10.267Z,5.40
2023-05-21T01:27:11.109Z,5.40
2023-05-21T01:28:11.974Z,5.70
2023-05-21T01:29:12.895Z,5.40
2023-05-21T01:30:13.760Z,6.10
2023-05-21T01:31:14.631Z,5.40
2023-05-21T01:32:15.512Z,5.80
2023-05-21T01:33:16.445Z,5.80
2023-05-21T01:34:17.415Z,5.90
2023-05-21T01:35:18.008Z,5.50
2023-05-21T01:36:18.957Z,5.70
2023-05-21T01:37:19.905Z,5.60
2023-05-21T01:40:35.389Z,5.90
2023-05-21T01:41:36.235Z,6.80
2023-05-21T01:42:37.272Z,6.30
2023-05-21T01:43:38.092Z,5.80
2023-05-21T01:44:38.971Z,6.10
2023-05-21T01:45:39.865Z,6.10
2023-05-21T01:46:40.844Z,5.90
2023-05-21T01:47:41.780Z,6.20
2023-05-21T01:48:42.649Z,5.60
2023-05-21T01:49:43.595Z,6.00
2023-05-21T01:50:44.472Z,5.70
2023-05-21T01:51:45.384Z,6.00
2023-05-21T01:52:46.458Z,5.80
2023-05-21T01:53:47.095Z,5.40
2023-05-21T01:54:47.589Z,5.60
2023-05-21T01:55:48.040Z,5.60
2023-05-21T01:56:48.878Z,6.00
2023-05-21T01:57:49.757Z,5.80
2023-05-21T01:58:50.651Z,6.30
2023-05-21T01:59:51.531Z,6.00
2023-05-21T02:00:52.408Z,5.60
2023-05-21T02:01:53.293Z,5.90
2023-05-21T02:02:54.230Z,5.80
2023-05-21T02:03:55.220Z,6.00
2023-05-21T02:04:55.607Z,6.10
2023-05-21T02:05:56.509Z,5.70
2023-05-21T02:06:57.380Z,6.00
2023-05-21T02:07:58.290Z,5.60
2023-05-21T02:08:59.145Z,5.80
2023-05-21T02:10:00.027Z,6.00
2023-05-21T02:11:00.925Z,5.70
2023-05-21T02:12:01.835Z,6.20
2023-05-21T02:13:02.731Z,5.90
2023-05-21T02:14:03.613Z,6.20
2023-05-21T02:15:04.466Z,5.90
2023-05-21T02:16:05.416Z,6.00
2023-05-21T02:17:06.290Z,5.90
2023-05-21T02:18:07.240Z,6.20
2023-05-21T02:19:08.156Z,6.20
2023-05-21T02:20:09.031Z,6.40
2023-05-21T02:21:09.941Z,6.40
2023-05-21T02:22:10.789Z,5.90
2023-05-21T02:23:11.697Z,6.00
2023-05-21T02:24:12.551Z,6.30
2023-05-21T02:25:13.433Z,6.70
2023-05-21T02:26:14.329Z,6.40
2023-05-21T02:27:15.258Z,6.30
2023-05-21T02:28:16.150Z,6.30
2023-05-21T02:29:17.009Z,6.80
2023-05-21T02:30:17.873Z,6.30
2023-05-21T02:31:18.765Z,6.80
2023-05-21T02:32:19.629Z,6.40
2023-05-21T02:33:20.482Z,6.30
2023-05-21T02:34:21.448Z,6.30
2023-05-21T02:35:21.841Z,6.30
2023-05-21T02:36:22.722Z,6.10
2023-05-21T02:37:23.594Z,6.00
2023-05-21T02:38:24.486Z,6.70
2023-05-21T02:39:25.377Z,6.30
2023-05-21T02:40:26.298Z,6.50
2023-05-21T02:41:27.147Z,6.20
2023-05-21T02:42:28.025Z,7.00
2023-05-21T02:43:28.938Z,6.50
2023-05-21T02:44:29.828Z,6.50
2023-05-21T02:45:30.746Z,7.00
2023-05-21T02:46:31.636Z,6.60
2023-05-21T02:47:32.564Z,6.60
2023-05-21T02:48:33.021Z,6.60
2023-05-21T02:49:33.883Z,6.60
2023-05-21T02:50:34.761Z,6.70
2023-05-21T02:51:35.690Z,6.70
2023-05-21T02:52:36.526Z,6.40
2023-05-21T02:53:37.426Z,6.60
2023-05-21T02:54:37.966Z,6.60
2023-05-21T02:55:39.027Z,6.40
2023-05-21T02:56:39.468Z,6.70
2023-05-21T02:57:40.353Z,7.00
2023-05-21T02:58:41.263Z,6.40
2023-05-21T02:59:42.142Z,6.30
2023-05-21T03:00:42.996Z,6.60
2023-05-21T03:01:43.995Z,6.90
2023-05-21T03:02:44.470Z,6.80
2023-05-21T03:03:44.938Z,7.00
2023-05-21T03:04:45.905Z,8.20
2023-05-21T03:05:46.825Z,8.10
2023-05-21T03:06:47.670Z,6.60
2023-05-21T03:07:48.573Z,6.80
2023-05-21T03:08:49.460Z,6.30
2023-05-21T03:09:50.321Z,7.10
2023-05-21T03:10:51.271Z,7.40
2023-05-21T03:11:52.086Z,6.60
2023-05-21T03:12:52.975Z,6.60
2023-05-21T03:13:53.887Z,7.00
2023-05-21T03:14:54.770Z,7.30
2023-05-21T03:15:55.625Z,6.50
2023-05-21T03:16:56.548Z,7.00
2023-05-21T03:17:57.429Z,7.80
2023-05-21T03:18:58.324Z,7.10
2023-05-21T03:19:59.222Z,7.10
2023-05-21T03:21:00.149Z,7.10
2023-05-21T03:22:00.998Z,7.60
2023-05-21T03:23:01.913Z,18.70
2023-05-21T03:24:02.790Z,7.20
2023-05-21T03:25:03.476Z,6.70
2023-05-21T03:26:04.332Z,7.10
2023-05-21T03:27:05.302Z,6.90
2023-05-21T03:28:06.159Z,7.20
2023-05-21T03:29:07.008Z,7.20
2023-05-21T03:30:07.886Z,16.80
2023-05-21T03:31:08.819Z,7.10
2023-05-21T03:32:09.733Z,36.10
2023-05-21T03:33:10.624Z,8.00
2023-05-21T03:34:11.517Z,11.20
2023-05-21T03:35:12.445Z,21.30
2023-05-21T03:36:13.274Z,60.20
2023-05-21T03:37:14.173Z,249.60
2023-05-21T03:38:15.036Z,178.10
2023-05-21T03:39:15.956Z,163.40
2023-05-21T03:40:16.808Z,296.60
2023-05-21T03:41:17.697Z,580.40
2023-05-21T03:42:18.572Z,376.70
2023-05-21T03:43:19.428Z,729.80
2023-05-21T03:44:20.316Z,588.40
2023-05-21T03:45:21.247Z,688.50
2023-05-21T03:46:22.124Z,897.30
2023-05-21T03:47:23.064Z,999.90
2023-05-21T03:48:23.932Z,848.80
2023-05-21T03:49:24.784Z,926.60
2023-05-21T03:50:25.682Z,946.40
2023-05-21T03:51:26.535Z,999.90
2023-05-21T03:52:27.415Z,999.90
2023-05-21T03:53:28.278Z,999.90
2023-05-21T03:54:29.158Z,999.90
2023-05-21T03:55:30.060Z,999.90
2023-05-21T03:56:30.900Z,999.90
2023-05-21T03:57:31.844Z,999.90
2023-05-21T03:58:32.699Z,999.90
2023-05-21T03:59:33.590Z,999.90
2023-05-21T04:00:34.436Z,999.90
2023-05-21T04:01:35.354Z,999.90
2023-05-21T04:02:36.234Z,999.90
2023-05-21T04:03:39.322Z,999.90
2023-05-21T04:04:37.703Z,999.90
2023-05-21T04:05:38.622Z,999.90
2023-05-21T04:06:39.112Z,999.90
2023-05-21T04:07:39.960Z,118.00
2023-05-21T04:08:40.881Z,999.90
2023-05-21T04:09:41.740Z,124.90
2023-05-21T04:10:42.609Z,999.90
2023-05-21T04:11:43.466Z,999.90
2023-05-21T04:12:44.339Z,999.90
2023-05-21T04:13:45.217Z,999.90
2023-05-21T04:14:46.117Z,999.90
2023-05-21T04:15:47.061Z,999.90
2023-05-21T04:16:47.965Z,567.00
2023-05-21T04:17:48.861Z,999.90
2023-05-21T04:18:49.745Z,999.90
2023-05-21T04:19:50.610Z,999.90
2023-05-21T04:20:51.494Z,999.90
2023-05-21T04:21:52.366Z,999.90
2023-05-21T04:22:53.273Z,999.90
2023-05-21T04:23:54.191Z,999.90
2023-05-21T04:24:55.042Z,999.90
2023-05-21T04:25:55.902Z,999.90
2023-05-21T04:26:56.777Z,999.90
2023-05-21T04:27:57.683Z,999.90
2023-05-21T04:28:58.604Z,999.90
2023-05-21T04:29:59.473Z,999.90
2023-05-21T04:31:00.380Z,994.20
2023-05-21T04:32:01.223Z,999.90
2023-05-21T04:33:02.187Z,999.90
2023-05-21T04:34:03.055Z,999.90
2023-05-21T04:35:03.921Z,999.90
2023-05-21T04:36:04.888Z,999.90
2023-05-21T04:37:05.827Z,819.00
2023-05-21T04:38:06.701Z,766.70
2023-05-21T04:39:07.566Z,789.10
2023-05-21T04:40:08.477Z,698.70
2023-05-21T04:41:09.346Z,120.30
2023-05-21T04:42:10.210Z,88.10
2023-05-21T04:43:11.088Z,47.50
2023-05-21T04:44:12.114Z,310.10
2023-05-21T04:45:13.052Z,83.30
2023-05-21T04:46:13.945Z,9.80
2023-05-21T04:47:15.028Z,27.60
2023-05-21T04:48:15.497Z,16.10
2023-05-21T04:49:16.336Z,9.70
2023-05-21T04:50:17.199Z,9.10
2023-05-21T04:51:18.080Z,10.50
2023-05-21T04:52:18.953Z,11.50
2023-05-21T04:53:19.850Z,7.10
2023-05-21T04:54:20.734Z,7.40
2023-05-21T04:55:21.640Z,8.10
2023-05-21T04:56:22.592Z,7.90
2023-05-21T04:57:23.442Z,7.70
2023-05-21T04:58:24.330Z,7.30
2023-05-21T04:59:25.216Z,7.40
2023-05-21T05:00:26.124Z,7.10
2023-05-21T05:01:27.252Z,7.00
2023-05-21T05:02:27.770Z,7.00
2023-05-21T05:03:28.697Z,7.50
2023-05-21T05:04:29.620Z,6.80
2023-05-21T05:05:30.475Z,7.20
2023-05-21T05:06:31.372Z,6.70
2023-05-21T05:07:32.353Z,7.00
2023-05-21T05:08:34.235Z,7.30
2023-05-21T05:09:34.198Z,7.40
2023-05-21T05:10:35.094Z,7.40
2023-05-21T05:11:35.951Z,7.00
2023-05-21T05:12:36.807Z,7.50
2023-05-21T05:13:37.664Z,7.50
2023-05-21T05:14:38.580Z,7.20
2023-05-21T05:15:39.449Z,7.60
2023-05-21T05:16:40.354Z,6.70
2023-05-21T05:17:41.261Z,7.30
2023-05-21T05:18:42.243Z,7.30
2023-05-21T05:19:43.148Z,7.40
2023-05-21T05:20:44.052Z,6.90
2023-05-21T05:21:44.949Z,7.20
2023-05-21T05:22:45.812Z,7.00
2023-05-21T05:23:46.672Z,7.10
2023-05-21T05:24:47.544Z,7.40
2023-05-21T05:25:48.441Z,6.70
2023-05-21T05:26:49.294Z,6.70
2023-05-21T05:27:50.168Z,6.80
2023-05-21T05:28:51.039Z,6.90
2023-05-21T05:29:52.154Z,6.60
2023-05-21T05:30:52.720Z,6.50
2023-05-21T05:33:50.247Z,6.90
2023-05-21T05:34:51.416Z,6.90
2023-05-21T06:17:57.208Z,7.10
2023-05-21T06:18:58.139Z,7.00
2023-05-21T06:19:59.078Z,7.00
2023-05-21T06:20:59.993Z,6.50
2023-05-21T06:22:00.888Z,6.40
2023-05-21T06:23:01.765Z,6.90
2023-05-21T06:24:02.648Z,7.00
2023-05-21T06:25:03.531Z,6.60
2023-05-21T06:26:04.421Z,7.30
2023-05-21T06:27:05.294Z,6.60
2023-05-21T06:28:06.210Z,6.70
2023-05-21T06:29:07.059Z,7.00
2023-05-21T06:30:07.932Z,7.10
2023-05-21T06:31:08.787Z,6.70
2023-05-21T06:32:09.697Z,7.00
2023-05-21T06:33:10.645Z,6.80
2023-05-21T06:34:11.095Z,6.70
2023-05-21T06:35:11.599Z,6.60
2023-05-21T06:36:12.472Z,6.70
2023-05-21T06:37:13.523Z,6.50
2023-05-21T06:38:13.898Z,6.50
2023-05-21T06:39:14.822Z,6.40
2023-05-21T06:40:15.775Z,6.50
2023-05-21T06:41:16.828Z,6.40
2023-05-21T06:42:17.298Z,6.20
2023-05-21T06:43:18.163Z,6.50
2023-05-21T06:44:19.025Z,6.40
2023-05-21T06:45:19.899Z,6.00
2023-05-21T06:46:20.831Z,6.20
2023-05-21T06:47:21.680Z,6.60
2023-05-21T06:48:22.565Z,6.90
2023-05-21T06:49:23.447Z,6.40
2023-05-21T06:50:24.324Z,6.40
2023-05-21T06:51:25.199Z,6.60
2023-05-21T06:52:26.078Z,6.50
2023-05-21T06:53:26.983Z,7.00
2023-05-21T06:54:27.849Z,6.80
2023-05-21T06:55:28.725Z,6.80
2023-05-21T06:56:29.607Z,6.50
2023-05-21T06:57:30.544Z,6.70
2023-05-21T06:58:31.439Z,7.00
2023-05-21T06:59:32.372Z,7.00
2023-05-21T07:00:33.289Z,6.80
2023-05-21T07:01:34.216Z,6.30
2023-05-21T07:04:33.639Z,6.70
2023-05-21T07:05:35.978Z,6.80
2023-05-21T07:10:05.183Z,6.70
2023-05-21T07:11:06.058Z,6.50
2023-05-21T07:12:06.960Z,6.70
2023-05-21T07:13:07.915Z,5.90
2023-05-21T07:14:08.764Z,7.00
2023-05-21T07:15:09.652Z,6.90
2023-05-21T07:16:10.553Z,7.10
2023-05-21T07:17:11.551Z,7.10
2023-05-21T07:18:12.443Z,7.10
2023-05-21T07:19:13.362Z,7.10
2023-05-21T07:20:14.209Z,7.00
2023-05-21T07:21:15.091Z,6.90
2023-05-21T07:22:15.993Z,6.80
2023-05-21T07:23:16.887Z,7.00
2023-05-21T07:24:17.750Z,7.20
2023-05-21T07:25:18.651Z,7.10
2023-05-21T07:26:19.529Z,7.20
2023-05-21T07:27:25.660Z,6.80
2023-05-21T07:28:22.188Z,6.90
2023-05-21T07:29:22.086Z,7.30
2023-05-21T07:30:22.968Z,7.10
2023-05-21T07:31:23.921Z,7.40
2023-05-21T07:32:24.391Z,7.00
2023-05-21T07:33:25.263Z,7.50
2023-05-21T07:34:26.180Z,7.60
2023-05-21T07:49:51.742Z,7.80
2023-05-21T07:50:52.284Z,7.60
2023-05-21T07:51:52.846Z,7.80
2023-05-21T07:52:53.613Z,7.90
2023-05-21T07:53:55.305Z,7.50
2023-05-21T07:54:56.436Z,8.60
2023-05-21T07:55:55.273Z,7.70
2023-05-21T07:56:56.189Z,8.00
2023-05-21T07:57:57.094Z,8.10
2023-05-21T07:58:58.033Z,7.90
2023-05-21T07:59:58.915Z,7.80
2023-05-21T08:00:59.814Z,8.20
2023-05-21T08:02:00.721Z,8.50
2023-05-21T08:03:01.676Z,7.60
2023-05-21T08:04:02.686Z,8.40
2023-05-21T08:05:03.400Z,8.60
2023-05-21T08:06:03.838Z,8.50
2023-05-21T08:07:04.717Z,8.50
2023-05-21T08:08:05.609Z,8.80
2023-05-21T08:09:06.468Z,8.70
2023-05-21T08:10:07.384Z,8.60
2023-05-21T08:11:08.287Z,8.60
2023-05-21T08:12:09.167Z,8.40
2023-05-21T08:13:10.010Z,8.90
2023-05-21T08:14:10.903Z,8.30
2023-05-21T08:15:11.809Z,8.00
2023-05-21T08:16:12.712Z,8.80
2023-05-21T08:17:13.569Z,8.70
2023-05-21T08:18:14.446Z,8.00
2023-05-21T08:19:15.352Z,9.00
2023-05-21T08:20:16.272Z,8.70
2023-05-21T08:21:17.151Z,8.60
2023-05-21T08:22:18.013Z,8.40
2023-05-21T08:23:19.006Z,8.60
2023-05-21T08:24:19.857Z,8.00
2023-05-21T08:25:20.736Z,8.60
2023-05-21T08:26:21.619Z,8.80
2023-05-21T08:27:22.549Z,8.50
2023-05-21T08:28:23.450Z,8.60
2023-05-21T08:29:24.295Z,8.20
2023-05-21T08:30:25.162Z,8.60
2023-05-21T08:31:26.157Z,8.80
2023-05-21T08:32:27.093Z,8.70
2023-05-21T08:33:27.929Z,8.50
2023-05-21T08:34:28.847Z,8.60
2023-05-21T08:35:29.770Z,8.50
2023-05-21T08:36:30.694Z,8.30
2023-05-21T08:37:31.566Z,8.40
2023-05-21T08:38:32.620Z,8.00
2023-05-21T08:39:33.058Z,8.30
2023-05-21T08:40:33.929Z,8.50
2023-05-21T08:41:34.878Z,8.90
2023-05-21T08:42:37.396Z,9.30
2023-05-21T08:43:36.874Z,8.60
2023-05-21T08:44:38.227Z,8.60
2023-05-21T08:45:38.699Z,8.30
2023-05-21T08:46:39.014Z,8.10
2023-05-21T08:47:39.904Z,8.80
2023-05-21T08:48:40.769Z,8.90
2023-05-21T08:49:41.638Z,8.60
2023-05-21T08:50:42.551Z,8.60
2023-05-21T08:51:43.427Z,8.70
2023-05-21T08:52:44.340Z,8.70
2023-05-21T08:53:45.184Z,10.00
2023-05-21T08:54:46.097Z,9.80
2023-05-21T08:55:46.963Z,9.60
2023-05-21T08:56:47.903Z,9.30
2023-05-21T08:57:48.798Z,9.50
2023-05-21T08:58:49.690Z,9.20
2023-05-21T08:59:50.609Z,9.90
2023-05-21T09:00:51.601Z,9.20
2023-05-21T09:01:52.278Z,9.40
2023-05-21T09:02:52.827Z,9.00
2023-05-21T09:05:24.526Z,9.30
2023-05-21T09:06:25.538Z,9.20
2023-05-21T09:07:26.241Z,8.80
2023-05-21T09:08:27.437Z,9.20
2023-05-21T09:09:27.362Z,9.60
2023-05-21T09:10:28.201Z,8.90
2023-05-21T09:11:29.107Z,9.40
2023-05-21T09:12:29.951Z,9.20
2023-05-21T09:13:30.833Z,9.60
2023-05-21T09:14:31.753Z,9.10
2023-05-21T09:15:32.633Z,10.00
2023-05-21T09:16:33.627Z,9.40
2023-05-21T09:17:34.056Z,9.60
2023-05-21T09:18:34.932Z,9.00
2023-05-21T09:19:35.976Z,9.50
2023-05-21T09:20:36.777Z,9.10
2023-05-21T09:21:38.198Z,10.00
2023-05-21T09:22:38.049Z,9.40
2023-05-21T09:23:38.954Z,8.70
2023-05-21T09:24:39.841Z,9.20
2023-05-21T09:25:40.728Z,8.30
2023-05-21T09:26:41.580Z,8.90
2023-05-21T09:27:42.601Z,8.70
2023-05-21T09:28:43.487Z,9.10
2023-05-21T09:29:44.412Z,9.50
2023-05-21T09:30:45.268Z,9.30
2023-05-21T09:33:54.671Z,9.70
2023-05-21T09:34:55.197Z,9.30
2023-05-21T09:35:55.962Z,9.10
2023-05-21T09:40:43.107Z,10.00
2023-05-21T09:41:44.137Z,10.00
2023-05-21T09:42:44.761Z,9.10
2023-05-21T09:47:30.277Z,10.10
2023-05-21T09:48:30.163Z,10.10
2023-05-21T09:49:31.124Z,10.00
2023-05-21T09:50:31.972Z,9.90
2023-05-21T09:51:32.834Z,10.20
2023-05-21T09:52:33.696Z,10.20
2023-05-21T09:53:34.605Z,10.10
2023-05-21T09:54:35.491Z,10.40
2023-05-21T09:57:32.580Z,10.20
2023-05-21T09:58:32.589Z,10.10
2023-05-21T09:59:33.165Z,11.30
2023-05-21T10:00:34.259Z,11.00
2023-05-21T10:01:34.317Z,11.20
2023-05-21T10:02:35.299Z,10.70
2023-05-21T10:03:36.164Z,10.50
2023-05-21T10:08:48.760Z,10.40
2023-05-21T10:09:49.291Z,10.70
2023-05-21T10:10:49.722Z,10.70
2023-05-21T10:11:50.591Z,10.30
2023-05-21T10:12:51.503Z,10.60
2023-05-21T10:13:52.510Z,10.20
2023-05-21T10:14:52.870Z,10.90
2023-05-21T10:17:56.398Z,10.70
2023-05-21T10:18:56.902Z,11.40
2023-05-21T10:19:57.908Z,10.70
2023-05-21T10:23:12.063Z,9.50
2023-05-21T10:24:12.697Z,9.90
2023-05-21T10:27:08.608Z,10.50
2023-05-21T10:30:16.544Z,10.90
2023-05-21T10:31:17.091Z,10.10
2023-05-21T10:32:18.196Z,11.20
2023-05-21T10:33:18.689Z,11.10
2023-05-21T10:34:19.614Z,10.80
2023-05-21T10:35:20.488Z,11.10
2023-05-21T10:36:21.327Z,10.70
2023-05-21T10:37:22.416Z,10.50
2023-05-21T10:40:23.629Z,10.60
2023-05-21T10:41:23.950Z,11.50
2023-05-21T10:42:24.890Z,11.10
2023-05-21T10:43:25.748Z,10.50
2023-05-21T10:44:26.657Z,10.70
2023-05-21T10:45:27.548Z,10.20
2023-05-21T10:46:28.572Z,10.00
2023-05-21T10:47:28.971Z,11.40
2023-05-21T10:48:29.953Z,10.60
2023-05-21T10:51:51.777Z,10.40
2023-05-21T10:53:00.170Z,11.50
2023-05-21T10:58:16.305Z,10.20
2023-05-21T10:59:16.962Z,10.50
2023-05-21T11:00:17.684Z,10.50
2023-05-21T11:01:18.379Z,11.30
2023-05-21T11:02:18.862Z,10.90
2023-05-21T11:05:15.728Z,11.60
2023-05-21T11:10:51.340Z,10.80
2023-05-21T11:11:51.534Z,10.70
2023-05-21T11:14:47.910Z,10.50
2023-05-21T11:18:49.045Z,10.70
2023-05-21T11:19:49.939Z,11.30
2023-05-21T11:20:50.796Z,11.00
2023-05-21T11:21:51.636Z,10.80
2023-05-21T11:22:52.500Z,10.20
2023-05-21T11:23:53.643Z,11.30
2023-05-21T11:24:53.977Z,10.70
2023-05-21T11:25:54.921Z,9.80
2023-05-21T11:26:55.813Z,10.40
2023-05-21T11:27:56.734Z,10.10
2023-05-21T11:37:51.284Z,11.20
2023-05-21T11:38:53.041Z,10.90
2023-05-21T11:39:52.587Z,10.90
2023-05-21T11:40:53.340Z,11.20
2023-05-21T11:45:03.231Z,11.60
2023-05-21T11:50:54.002Z,11.00
2023-05-21T11:51:54.652Z,11.20
2023-05-21T11:53:17.244Z,10.30
2023-05-21T12:07:00.128Z,10.80
2023-05-21T12:10:02.795Z,10.90
2023-05-21T12:14:25.829Z,10.70
2023-05-21T12:18:31.504Z,11.10
2023-05-21T12:19:32.504Z,11.00
2023-05-21T12:20:33.007Z,11.40
2023-05-21T12:21:33.849Z,11.00
2023-05-21T12:22:35.172Z,11.90
2023-05-21T12:23:35.532Z,11.00
2023-05-21T12:24:36.459Z,12.20
2023-05-21T12:25:37.325Z,11.40
2023-05-21T12:26:38.190Z,11.30
2023-05-21T12:27:39.077Z,11.20
2023-05-21T12:28:39.941Z,11.10
2023-05-21T12:29:50.848Z,11.70
2023-05-21T12:30:41.743Z,11.10
2023-05-21T12:31:42.677Z,11.20
2023-05-21T12:32:43.580Z,11.00
2023-05-21T12:33:44.566Z,11.30
2023-05-21T12:34:45.038Z,11.00
2023-05-21T13:05:44.506Z,10.80
2023-05-21T13:08:46.996Z,11.70
2023-05-21T13:09:47.987Z,11.40
2023-05-21T13:10:48.859Z,11.00
2023-05-21T13:11:49.753Z,11.20
2023-05-21T13:12:50.718Z,11.60
2023-05-21T13:13:51.426Z,11.70
2023-05-21T13:14:52.597Z,11.60
2023-05-21T13:15:52.970Z,10.90
2023-05-21T13:16:53.983Z,10.90
2023-05-21T13:17:56.567Z,11.00
2023-05-21T13:18:54.924Z,10.80
2023-05-21T13:19:55.784Z,11.40
2023-05-21T13:20:56.734Z,11.40
2023-05-21T13:21:57.592Z,11.20
2023-05-21T13:22:58.465Z,11.20
2023-05-21T13:23:59.349Z,10.90
2023-05-21T13:25:00.229Z,11.10
2023-05-21T13:26:01.130Z,11.80
2023-05-21T13:27:02.027Z,11.30
2023-05-21T13:28:02.891Z,11.50
2023-05-21T13:29:03.787Z,10.70
2023-05-21T13:30:04.772Z,11.20
2023-05-21T13:31:05.631Z,10.90
2023-05-21T13:32:06.521Z,11.00
2023-05-21T13:33:07.470Z,10.70
2023-05-21T13:36:08.517Z,11.10
2023-05-21T13:37:09.444Z,11.70
2023-05-21T13:38:10.349Z,11.20
2023-05-21T13:39:11.542Z,11.00
2023-05-21T13:40:11.926Z,11.80
2023-05-21T13:54:32.797Z,11.80
2023-05-21T14:03:06.216Z,12.20
2023-05-21T14:04:06.677Z,12.60
2023-05-21T14:05:07.579Z,11.90
2023-05-21T14:06:08.515Z,11.40
2023-05-21T14:07:09.484Z,11.50
2023-05-21T14:13:21.353Z,12.30
2023-05-21T14:14:21.812Z,11.40
2023-05-21T14:15:22.760Z,12.50
2023-05-21T14:16:23.746Z,12.50
2023-05-21T14:17:24.250Z,12.90
2023-05-21T14:18:24.637Z,21.10
2023-05-21T14:19:25.793Z,12.30
2023-05-21T14:22:52.052Z,12.90
2023-05-21T14:31:31.933Z,12.90
2023-05-21T14:32:32.591Z,13.30
2023-05-21T14:33:33.029Z,13.20
2023-05-21T14:34:33.980Z,12.80
2023-05-21T14:35:35.042Z,12.80
2023-05-21T14:36:35.506Z,13.00
2023-05-21T14:37:36.419Z,13.40
2023-05-21T14:38:37.266Z,13.10
2023-05-21T14:39:38.152Z,13.10
2023-05-21T14:40:39.051Z,13.50
2023-05-21T14:41:39.963Z,13.80
2023-05-21T14:45:17.442Z,12.60
2023-05-21T14:46:03.890Z,13.20
2023-05-21T14:47:03.391Z,12.40
2023-05-21T14:48:04.336Z,13.40
2023-05-21T14:49:05.304Z,12.90
2023-05-21T14:50:06.138Z,13.10
2023-05-21T14:51:07.017Z,13.40
2023-05-21T14:52:07.917Z,13.30
2023-05-21T14:53:08.850Z,13.10
2023-05-21T14:54:09.701Z,14.00
2023-05-21T14:55:10.580Z,13.10
2023-05-21T14:56:11.509Z,13.80
2023-05-21T14:57:12.364Z,13.40
2023-05-21T14:58:13.234Z,13.00
2023-05-21T14:59:14.129Z,13.30
2023-05-21T15:00:15.000Z,13.80
2023-05-21T15:01:15.946Z,13.60
2023-05-21T15:02:16.868Z,13.50
2023-05-21T15:03:17.465Z,14.70
2023-05-21T15:04:18.362Z,14.00
2023-05-21T15:05:19.230Z,13.40
2023-05-21T15:06:20.104Z,14.10
2023-05-21T15:07:20.989Z,14.90
2023-05-21T15:08:21.867Z,13.60
2023-05-21T15:09:22.731Z,14.30
2023-05-21T15:10:23.614Z,14.10
2023-05-21T15:11:24.479Z,13.90
2023-05-21T15:12:25.371Z,14.30
2023-05-21T15:13:26.287Z,14.20
2023-05-21T15:16:32.677Z,14.50
2023-05-21T15:22:01.409Z,14.00
2023-05-21T15:23:15.853Z,13.90
2023-05-21T15:29:07.204Z,13.60
2023-05-21T15:30:08.160Z,13.50
2023-05-21T15:31:09.140Z,13.30
2023-05-21T15:32:10.091Z,13.30
2023-05-21T15:33:10.993Z,13.20
2023-05-21T15:34:11.999Z,14.00
2023-05-21T15:44:37.302Z,13.90
2023-05-21T15:45:38.773Z,14.10
2023-05-21T15:46:39.164Z,13.80
2023-05-21T15:47:41.255Z,13.60
2023-05-21T15:48:40.471Z,13.70
2023-05-21T15:49:41.400Z,13.90
2023-05-21T15:50:42.256Z,13.30
2023-05-21T15:51:43.147Z,14.60
2023-05-21T15:52:44.005Z,14.20
2023-05-21T15:53:44.880Z,14.10
2023-05-21T15:54:45.742Z,13.80
2023-05-21T15:55:46.621Z,14.10
2023-05-21T15:56:47.479Z,13.60
2023-05-21T15:57:48.375Z,13.20
2023-05-21T15:58:49.372Z,13.80
2023-05-21T15:59:50.349Z,13.30
2023-05-21T16:00:51.257Z,13.90
2023-05-21T16:01:52.250Z,13.60
2023-05-21T16:02:53.177Z,14.20
2023-05-21T16:03:54.053Z,14.00
2023-05-21T16:04:55.035Z,13.70
2023-05-21T16:05:55.912Z,15.10
2023-05-21T16:06:56.768Z,14.50
2023-05-21T16:07:57.687Z,14.20
2023-05-21T16:08:58.542Z,13.90
2023-05-21T16:09:59.443Z,13.90
2023-05-21T16:11:00.444Z,13.30
2023-05-21T16:12:00.825Z,14.00
2023-05-21T16:13:01.725Z,14.20
2023-05-21T16:14:02.584Z,13.30
2023-05-21T16:15:03.496Z,13.60
2023-05-21T16:16:04.453Z,13.50
2023-05-21T16:17:05.328Z,13.40
2023-05-21T16:18:05.793Z,13.70
2023-05-21T16:19:06.695Z,13.60
2023-05-21T16:20:07.568Z,13.40
2023-05-21T16:21:08.622Z,13.70
2023-05-21T16:22:10.745Z,13.10
2023-05-21T16:23:09.926Z,13.30
2023-05-21T16:24:12.753Z,13.00
2023-05-21T16:33:43.353Z,13.60
2023-05-21T16:34:44.800Z,13.00
2023-05-21T16:35:44.768Z,13.30
2023-05-21T16:36:45.668Z,13.00
2023-05-21T16:37:46.723Z,13.50
2023-05-21T16:38:47.084Z,12.80
2023-05-21T16:39:47.954Z,13.50
2023-05-21T16:40:48.834Z,13.60
2023-05-21T16:41:49.715Z,13.30
2023-05-21T16:42:50.600Z,13.30
2023-05-21T16:54:26.628Z,13.60
2023-05-21T16:56:58.145Z,12.80
2023-05-21T16:57:58.639Z,13.50
2023-05-21T17:06:08.160Z,13.30
2023-05-21T17:07:09.213Z,12.80
2023-05-21T17:08:09.753Z,13.30
2023-05-21T17:09:10.880Z,13.10
2023-05-21T17:10:11.424Z,13.10
2023-05-21T17:11:12.370Z,13.40
2023-05-21T17:17:32.958Z,12.80
2023-05-21T17:25:15.778Z,12.80
2023-05-21T17:37:19.446Z,13.50
2023-05-21T17:50:15.284Z,13.30
2023-05-21T17:51:16.385Z,13.20
2023-05-21T17:52:16.991Z,13.20
2023-05-21T17:53:17.935Z,12.90
2023-05-21T18:27:11.564Z,12.90
2023-05-21T18:28:11.557Z,13.50
2023-05-21T18:29:12.474Z,12.60
2023-05-21T18:30:13.491Z,13.00
2023-05-21T18:31:14.920Z,12.10
2023-05-21T18:42:32.585Z,13.00
2023-05-21T18:43:33.598Z,12.70
2023-05-21T18:44:34.169Z,13.10
2023-05-21T18:45:34.708Z,11.80
2023-05-21T19:00:58.113Z,12.20
2023-05-21T19:01:59.101Z,13.10
2023-05-21T19:02:59.619Z,13.00
2023-05-21T19:04:00.516Z,12.70
2023-05-21T19:05:01.584Z,12.80
2023-05-21T19:06:02.081Z,12.80
2023-05-21T19:08:58.582Z,12.40
2023-05-21T19:09:59.500Z,13.60
2023-05-21T19:19:25.762Z,13.00
2023-05-21T19:20:26.361Z,13.30
2023-05-21T19:21:26.940Z,13.00
2023-05-21T19:22:28.015Z,13.20
2023-05-21T19:23:29.483Z,13.00
2023-05-21T19:30:49.217Z,13.40
2023-05-21T19:31:50.202Z,12.40
2023-05-21T19:32:51.192Z,13.00
2023-05-21T19:33:51.792Z,12.80
2023-05-21T19:34:52.218Z,13.00
2023-05-21T19:35:53.081Z,13.60
2023-05-21T19:36:54.180Z,13.00